Time;durP1;ratioP1;P1;durP2;ratioP2;P2;SDS_P1;SDS_P2;PMS_P1;PMS_P2;Temp;Humidity;BMP_temperature;BMP_pressure;BME280_temperature;BME280_humidity;BME280_pressure;Samples;Min_cycle;Max_cycle;Signal;HPM_P1;HPM_P2
2023/02/20 00:02:59;;;;;;;1.50;1.10;;;13.00;70.20;;;;;;10359895;28;20084;-58
2023/02/20 00:08:00;;;;;;;1.60;1.33;;;13.00;70.10;;;;;;10359786;28;20489;-59
2023/02/20 00:13:00;;;;;;;1.40;0.80;;;13.00;70.20;;;;;;10359895;28;20362;-59
2023/02/20 00:18:01;;;;;;;1.92;1.10;;;13.10;70.20;;;;;;10367193;28;20558;-59
2023/02/20 00:23:02;;;;;;;1.73;1.20;;;13.10;70.20;;;;;;10368040;28;20045;-59
2023/02/20 00:28:03;;;;;;;1.60;1.10;;;13.00;70.20;;;;;;10367744;28;20475;-59
2023/02/20 00:33:04;;;;;;;1.65;1.08;;;13.00;70.10;;;;;;10367495;28;20669;-59
2023/02/20 00:38:04;;;;;;;1.73;1.08;;;13.00;70.10;;;;;;10368259;28;20137;-58
2023/02/20 00:43:05;;;;;;;1.48;1.00;;;13.00;70.10;;;;;;10368594;28;20109;-59
2023/02/20 00:48:06;;;;;;;1.92;1.33;;;13.00;70.10;;;;;;10367146;28;20453;-59
2023/02/20 00:53:06;;;;;;;3.03;1.70;;;13.00;70.10;;;;;;10366667;28;20105;-59
2023/02/20 00:58:07;;;;;;;1.38;1.25;;;13.00;70.10;;;;;;10367808;28;20128;-58
2023/02/20 01:03:08;;;;;;;2.63;1.70;;;13.00;70.10;;;;;;10367900;28;20057;-59
2023/02/20 01:08:08;;;;;;;1.75;1.13;;;13.00;70.10;;;;;;10365976;28;20113;-59
2023/02/20 01:13:09;;;;;;;3.58;1.67;;;13.00;70.10;;;;;;10366085;28;20472;-59
2023/02/20 01:18:10;;;;;;;2.20;1.50;;;12.90;70.10;;;;;;10368143;28;20109;-59
2023/02/20 01:23:11;;;;;;;1.90;1.23;;;12.90;70.10;;;;;;10366068;28;20073;-59
2023/02/20 01:28:11;;;;;;;2.30;1.23;;;12.90;70.10;;;;;;10365791;28;20076;-59
2023/02/20 01:33:12;;;;;;;2.83;1.52;;;12.90;70.10;;;;;;10349059;28;20499;-59
2023/02/20 01:38:13;;;;;;;2.38;1.50;;;13.00;70.10;;;;;;10364687;28;20512;-59
2023/02/20 01:43:15;;;;;;;2.63;1.45;;;12.90;70.10;;;;;;10366144;28;20285;-59
2023/02/20 01:48:24;;;;;;;1.95;1.23;;;13.00;70.10;;;;;;10348406;28;20018;-59
2023/02/20 01:53:29;;;;;;;1.90;1.23;;;12.90;70.10;;;;;;10364576;28;20029;-59
2023/02/20 01:58:37;;;;;;;2.78;1.50;;;12.90;70.00;;;;;;10363925;28;20254;-58
2023/02/20 02:03:46;;;;;;;3.03;1.90;;;12.90;70.10;;;;;;10364446;28;20511;-59
2023/02/20 02:08:47;;;;;;;3.42;1.42;;;12.90;70.10;;;;;;10363808;28;20018;-59
2023/02/20 02:13:48;;;;;;;4.50;1.70;;;12.90;70.10;;;;;;10363778;28;20052;-59
2023/02/20 02:19:19;;;;;;;2.70;1.20;;;12.90;70.00;;;;;;10363351;28;20113;-59
2023/02/20 02:25:06;;;;;;;2.17;1.40;;;12.90;70.00;;;;;;10364810;28;20026;-59
2023/02/20 02:30:54;;;;;;;3.42;1.77;;;12.90;70.00;;;;;;10363651;28;20407;-59
2023/02/20 02:36:37;;;;;;;2.03;1.58;;;12.80;70.00;;;;;;10363981;28;20049;-59
2023/02/20 02:41:57;;;;;;;2.10;1.30;;;12.80;70.00;;;;;;10363936;28;20096;-58
2023/02/20 02:48:04;;;;;;;2.47;1.60;;;12.80;70.00;;;;;;10363621;28;20442;-59
2023/02/20 02:53:07;;;;;;;2.25;1.38;;;12.80;70.00;;;;;;10356311;28;20246;-59
2023/02/20 02:58:10;;;;;;;2.47;1.30;;;12.90;70.00;;;;;;10363199;28;20490;-59
2023/02/20 03:03:28;;;;;;;2.45;1.42;;;12.90;70.10;;;;;;10363752;28;20357;-59
2023/02/20 03:08:39;;;;;;;2.60;1.35;;;12.80;70.00;;;;;;10361142;28;20030;-59
2023/02/20 03:19:50;;;;;;;2.30;1.58;;;12.80;70.00;;;;;;10361925;28;20038;-58
2023/02/20 03:25:00;;;;;;;5.07;1.88;;;12.80;70.00;;;;;;10360968;28;20104;-58
2023/02/20 03:30:02;;;;;;;4.05;2.30;;;12.80;70.00;;;;;;10377293;28;20022;-59
2023/02/20 03:45:46;;;;;;;2.83;1.98;;;12.80;70.00;;;;;;10320752;28;20097;-59
2023/02/20 03:56:18;;;;;;;5.18;2.60;;;12.80;70.00;;;;;;10319624;28;20026;-59
2023/02/20 04:01:22;;;;;;;3.75;2.45;;;12.80;70.00;;;;;;10319991;28;20034;-59
2023/02/20 04:06:30;;;;;;;4.10;2.92;;;12.80;70.00;;;;;;10319397;28;20449;-59
2023/02/20 04:12:01;;;;;;;4.07;2.85;;;12.70;69.90;;;;;;10320407;28;20045;-59
2023/02/20 04:17:10;;;;;;;4.53;3.28;;;12.80;70.00;;;;;;10320229;28;20018;-59
2023/02/20 04:22:19;;;;;;;6.45;3.38;;;12.70;69.90;;;;;;10320644;28;20120;-59
2023/02/20 04:27:20;;;;;;;5.40;2.88;;;12.70;70.00;;;;;;10319189;28;20435;-59
2023/02/20 04:32:21;;;;;;;5.13;3.38;;;12.70;69.90;;;;;;10318916;28;20023;-58
2023/02/20 04:37:21;;;;;;;5.07;3.63;;;12.70;70.00;;;;;;10332511;28;20061;-59
2023/02/20 04:42:22;;;;;;;5.68;3.30;;;12.70;70.00;;;;;;10359154;28;20393;-59
2023/02/20 04:47:23;;;;;;;5.68;3.25;;;12.70;70.00;;;;;;10358929;28;20529;-59
2023/02/20 04:52:24;;;;;;;5.10;3.80;;;12.70;70.00;;;;;;10359358;28;20044;-58
2023/02/20 04:57:24;;;;;;;5.72;3.70;;;12.70;70.00;;;;;;10358805;28;20083;-58
2023/02/20 05:02:25;;;;;;;4.72;3.55;;;12.70;70.00;;;;;;10345682;28;20022;-59
2023/02/20 05:07:26;;;;;;;4.55;3.88;;;12.70;70.00;;;;;;10350224;28;20065;-59
2023/02/20 05:12:26;;;;;;;5.78;3.33;;;12.70;70.00;;;;;;10366452;28;20065;-58
2023/02/20 05:17:27;;;;;;;7.10;4.18;;;12.70;70.00;;;;;;10349831;28;20132;-59
2023/02/20 05:22:28;;;;;;;4.93;3.40;;;12.70;70.00;;;;;;10365758;28;20115;-59
2023/02/20 05:27:28;;;;;;;6.20;3.67;;;12.70;69.90;;;;;;10365408;28;20029;-59
2023/02/20 05:32:30;;;;;;;4.85;3.65;;;12.70;70.00;;;;;;10365426;28;20025;-59
2023/02/20 05:37:30;;;;;;;6.97;4.10;;;12.60;69.90;;;;;;10364765;28;20537;-59
2023/02/20 05:42:31;;;;;;;5.75;4.25;;;12.70;70.00;;;;;;10366302;28;20022;-59
2023/02/20 05:47:32;;;;;;;7.47;3.85;;;12.70;70.00;;;;;;10365049;28;20103;-59
2023/02/20 05:52:32;;;;;;;7.43;4.78;;;12.60;70.00;;;;;;10348163;28;20120;-59
2023/02/20 05:57:33;;;;;;;5.85;4.18;;;12.60;70.00;;;;;;10364024;28;20442;-59
2023/02/20 06:02:34;;;;;;;5.13;3.22;;;12.60;69.90;;;;;;10365949;28;20049;-59
2023/02/20 06:07:35;;;;;;;5.32;4.00;;;12.60;69.90;;;;;;10365118;28;20025;-57
2023/02/20 06:12:35;;;;;;;5.72;3.78;;;12.60;70.00;;;;;;10363367;28;20106;-59
2023/02/20 06:17:36;;;;;;;5.25;3.90;;;12.60;69.90;;;;;;10363510;28;20088;-59
2023/02/20 06:22:37;;;;;;;5.22;3.78;;;12.60;70.00;;;;;;10363460;28;20061;-59
2023/02/20 06:27:38;;;;;;;6.25;4.80;;;12.60;70.00;;;;;;10347272;28;20503;-59
2023/02/20 06:32:39;;;;;;;5.47;3.80;;;12.60;69.90;;;;;;10363431;28;20028;-58
2023/02/20 06:37:39;;;;;;;7.47;4.35;;;12.60;70.00;;;;;;10363652;28;20458;-58
2023/02/20 06:42:40;;;;;;;9.75;3.95;;;12.60;70.00;;;;;;10362791;28;20026;-59
2023/02/20 06:47:41;;;;;;;5.85;4.05;;;12.60;70.00;;;;;;10362520;28;20050;-58
2023/02/20 06:52:41;;;;;;;7.72;4.35;;;12.60;69.90;;;;;;10361852;28;20478;-59
2023/02/20 06:57:42;;;;;;;5.43;4.10;;;12.60;70.00;;;;;;10359100;28;20121;-58
2023/02/20 07:02:43;;;;;;;7.50;4.40;;;12.60;69.90;;;;;;10358893;28;20048;-59
2023/02/20 07:07:44;;;;;;;5.80;4.57;;;12.60;69.90;;;;;;10360417;28;20022;-59
2023/02/20 07:12:44;;;;;;;5.60;4.00;;;12.60;69.90;;;;;;10364139;28;20516;-58
2023/02/20 07:17:45;;;;;;;5.80;3.85;;;12.60;69.90;;;;;;10362304;28;20062;-59
2023/02/20 07:22:51;;;;;;;8.88;4.90;;;12.60;70.00;;;;;;10362458;28;20053;-59
2023/02/20 07:27:51;;;;;;;5.43;3.67;;;12.60;69.90;;;;;;10362558;28;20409;-59
2023/02/20 07:32:52;;;;;;;6.53;4.28;;;12.60;70.00;;;;;;10363469;28;20050;-59
2023/02/20 07:37:53;;;;;;;7.97;4.20;;;12.60;69.90;;;;;;10361777;28;20479;-59
2023/02/20 07:42:53;;;;;;;8.65;3.83;;;12.60;69.90;;;;;;10362815;28;20085;-59
2023/02/20 07:47:54;;;;;;;5.43;3.97;;;12.60;69.90;;;;;;10361755;28;20050;-58
2023/02/20 07:52:55;;;;;;;8.20;4.55;;;12.60;69.90;;;;;;10361305;28;20028;-59
2023/02/20 07:57:57;;;;;;;6.38;3.67;;;12.60;69.90;;;;;;10362509;28;20141;-59
2023/02/20 08:02:58;;;;;;;6.43;3.83;;;12.60;70.00;;;;;;10361333;28;20049;-59
2023/02/20 08:07:59;;;;;;;5.80;4.00;;;12.60;70.00;;;;;;10361486;28;20029;-59
2023/02/20 08:13:01;;;;;;;7.43;4.13;;;12.60;70.00;;;;;;10360918;28;20028;-59
2023/02/20 08:18:01;;;;;;;6.35;4.25;;;12.60;69.90;;;;;;10344533;28;20124;-59
2023/02/20 08:23:04;;;;;;;5.82;3.90;;;12.50;69.90;;;;;;10360868;28;20019;-59
2023/02/20 08:28:04;;;;;;;6.43;4.47;;;12.50;70.50;;;;;;10361148;28;20101;-59
2023/02/20 08:33:05;;;;;;;7.15;4.10;;;12.60;70.00;;;;;;10360910;28;20022;-59
2023/02/20 08:38:23;;;;;;;5.28;4.28;;;12.60;70.00;;;;;;10365234;28;20046;-59
2023/02/20 08:43:24;;;;;;;7.20;4.07;;;12.50;69.90;;;;;;10368761;28;20509;-59
2023/02/20 08:48:25;;;;;;;5.40;3.92;;;12.50;69.90;;;;;;10368220;28;20389;-59
2023/02/20 08:53:26;;;;;;;6.10;4.68;;;12.50;69.90;;;;;;10368311;28;20028;-59
2023/02/20 08:58:26;;;;;;;6.65;4.35;;;12.60;70.00;;;;;;10369058;28;20030;-59
2023/02/20 09:03:28;;;;;;;6.35;4.10;;;12.60;70.00;;;;;;10351739;28;20529;-58
2023/02/20 09:08:28;;;;;;;7.47;4.68;;;12.50;69.90;;;;;;10367522;28;20041;-59
2023/02/20 09:13:29;;;;;;;7.55;5.25;;;12.60;70.00;;;;;;10367640;28;20100;-59
2023/02/20 09:18:32;;;;;;;8.73;4.63;;;12.60;70.00;;;;;;10368490;28;20561;-59
2023/02/20 09:23:32;;;;;;;7.20;4.43;;;12.60;70.00;;;;;;10367291;28;20022;-59
2023/02/20 09:28:33;;;;;;;5.75;4.22;;;12.60;70.00;;;;;;10367830;28;20101;-59
2023/02/20 09:33:34;;;;;;;7.25;4.07;;;12.60;70.00;;;;;;10366893;28;20014;-59
2023/02/20 09:38:35;;;;;;;6.68;4.70;;;12.60;70.00;;;;;;10366267;28;20022;-58
2023/02/20 09:44:13;;;;;;;7.97;4.57;;;12.50;70.00;;;;;;10367705;28;20412;-58
2023/02/20 09:49:32;;;;;;;7.53;5.05;;;12.60;70.10;;;;;;10366037;28;20030;-59
2023/02/20 09:54:42;;;;;;;10.50;4.97;;;12.60;70.10;;;;;;10365877;28;20014;-59
2023/02/20 10:00:00;;;;;;;7.35;4.43;;;12.60;70.10;;;;;;10365726;28;20660;-59
2023/02/20 10:05:11;;;;;;;5.97;3.88;;;12.60;70.10;;;;;;10365565;28;20018;-59
2023/02/20 10:10:29;;;;;;;8.25;3.92;;;12.50;70.10;;;;;;10365617;28;20044;-59
2023/02/20 10:16:00;;;;;;;7.00;4.00;;;12.50;70.10;;;;;;10366589;28;20026;-59
2023/02/20 10:21:44;;;;;;;5.72;3.72;;;12.50;70.10;;;;;;10365346;28;20549;-60
2023/02/20 10:26:52;;;;;;;5.90;3.88;;;12.50;70.00;;;;;;10365147;28;20026;-60
2023/02/20 10:32:00;;;;;;;4.80;3.40;;;12.50;70.10;;;;;;10364533;28;20017;-59
2023/02/20 10:37:17;;;;;;;5.88;4.60;;;12.50;70.10;;;;;;10364028;28;20081;-59
2023/02/20 10:42:51;;;;;;;5.25;3.92;;;12.50;70.10;;;;;;10365395;28;20014;-59
2023/02/20 10:48:04;;;;;;;6.95;4.05;;;12.50;70.10;;;;;;10380117;28;20041;-59
2023/02/20 10:53:30;;;;;;;7.00;3.75;;;12.50;70.10;;;;;;10365196;28;20030;-59
2023/02/20 10:59:02;;;;;;;5.72;3.35;;;12.50;70.20;;;;;;10363450;28;20033;-59
2023/02/20 11:04:16;;;;;;;5.20;3.20;;;12.50;70.10;;;;;;10364796;28;20030;-59
2023/02/20 11:09:18;;;;;;;3.90;2.67;;;12.50;70.20;;;;;;10363309;28;20394;-59
2023/02/20 11:14:42;;;;;;;6.10;3.33;;;12.50;70.10;;;;;;10362370;28;20060;-59
2023/02/20 11:19:55;;;;;;;5.35;3.30;;;12.50;70.10;;;;;;10362545;28;20096;-59
2023/02/20 11:25:29;;;;;;;5.18;3.28;;;12.50;70.20;;;;;;10362564;28;20022;-59
2023/02/20 11:30:39;;;;;;;6.13;3.33;;;12.50;70.20;;;;;;10363722;28;20589;-59
2023/02/20 11:35:46;;;;;;;5.93;2.92;;;12.50;70.20;;;;;;10336775;28;20054;-60
2023/02/20 11:40:55;;;;;;;5.57;3.20;;;12.50;70.20;;;;;;10321746;28;20129;-58
2023/02/20 11:46:14;;;;;;;4.55;3.30;;;12.50;70.20;;;;;;10322546;28;20054;-58
2023/02/20 11:51:37;;;;;;;5.30;2.67;;;12.50;70.20;;;;;;10321490;28;20104;-59
2023/02/20 11:56:38;;;;;;;6.70;3.00;;;12.50;70.10;;;;;;10336861;28;20438;-58
2023/02/20 12:01:38;;;;;;;4.85;2.97;;;12.50;70.20;;;;;;10321058;28;20018;-59
2023/02/20 12:06:42;;;;;;;7.20;3.90;;;12.50;70.20;;;;;;10320945;28;20030;-58
2023/02/20 12:11:43;;;;;;;4.63;2.65;;;12.50;70.20;;;;;;10319471;28;20026;-57
2023/02/20 12:17:40;;;;;;;4.53;2.50;;;12.50;70.10;;;;;;10320449;28;20126;-60
2023/02/20 12:22:52;;;;;;;3.60;2.50;;;12.50;70.20;;;;;;10318933;28;20300;-59
2023/02/20 12:28:31;;;;;;;4.10;3.03;;;12.50;70.20;;;;;;10320664;28;20522;-58
2023/02/20 12:33:58;;;;;;;4.32;2.17;;;12.50;70.20;;;;;;10337919;28;20057;-59
2023/02/20 12:39:25;;;;;;;4.63;2.90;;;12.50;70.30;;;;;;10361671;28;20550;-59
2023/02/20 12:44:48;;;;;;;6.78;3.65;;;12.50;70.20;;;;;;10360420;28;20021;-59
2023/02/20 12:50:09;;;;;;;5.15;2.33;;;12.50;70.20;;;;;;10361531;28;20030;-59
2023/02/20 12:55:34;;;;;;;;;;;12.50;70.30;;;;;;10345093;28;20029;-60
2023/02/20 13:00:46;;;;;;;4.60;2.78;;;12.50;70.20;;;;;;10361931;28;19917;-59
2023/02/20 13:05:49;;;;;;;5.18;2.50;;;12.50;70.20;;;;;;10344736;28;20024;-59
2023/02/20 13:10:56;;;;;;;4.15;2.03;;;12.50;70.20;;;;;;10359995;28;20029;-59
2023/02/20 13:16:10;;;;;;;4.78;2.58;;;12.50;70.20;;;;;;10360038;28;20045;-59
2023/02/20 13:21:16;;;;;;;5.15;2.35;;;12.50;70.30;;;;;;10360039;28;20014;-59
2023/02/20 13:26:26;;;;;;;4.00;2.45;;;12.50;70.30;;;;;;10367912;28;20037;-59
2023/02/20 13:31:54;;;;;;;2.97;1.98;;;12.50;70.30;;;;;;10367918;28;20045;-59
2023/02/20 13:36:55;;;;;;;4.90;2.40;;;12.50;70.20;;;;;;10357069;28;20042;-59
2023/02/20 13:42:01;;;;;;;3.03;2.33;;;12.50;70.30;;;;;;10366665;28;20073;-59
2023/02/20 13:47:28;;;;;;;4.65;2.10;;;12.50;70.30;;;;;;10350440;28;20542;-59
2023/02/20 13:52:31;;;;;;;6.88;2.80;;;12.50;70.30;;;;;;10376334;28;20040;-59
2023/02/20 13:57:32;;;;;;;4.55;1.90;;;12.50;70.90;;;;;;10365400;28;20393;-59
2023/02/20 14:02:40;;;;;;;3.50;2.20;;;12.50;70.30;;;;;;10366108;28;20025;-59
2023/02/20 14:07:45;;;;;;;3.50;1.90;;;12.50;70.30;;;;;;10366561;28;20057;-60
2023/02/20 14:13:17;;;;;;;3.10;2.00;;;12.50;70.30;;;;;;10365343;28;20590;-59
2023/02/20 14:18:26;;;;;;;3.58;1.98;;;12.50;70.20;;;;;;10365827;28;20033;-59
2023/02/20 14:23:28;;;;;;;3.40;2.38;;;12.50;70.40;;;;;;10365787;28;20036;-59
2023/02/20 14:28:33;;;;;;;4.43;2.45;;;12.50;70.40;;;;;;10364586;28;20477;-59
2023/02/20 14:33:34;;;;;;;2.58;1.95;;;12.50;70.40;;;;;;10363737;28;20489;-59
2023/02/20 14:39:08;;;;;;;3.33;1.80;;;12.50;70.30;;;;;;10364989;28;20026;-59
2023/02/20 14:44:17;;;;;;;3.80;1.95;;;12.50;70.40;;;;;;10364023;28;20037;-59
2023/02/20 14:49:29;;;;;;;3.20;1.73;;;12.50;70.40;;;;;;10364495;28;20046;-59
2023/02/20 14:54:30;;;;;;;6.75;2.40;;;12.50;70.40;;;;;;10363553;28;20106;-59
2023/02/20 14:59:37;;;;;;;3.65;1.80;;;12.40;70.30;;;;;;10365223;28;20111;-59
2023/02/20 15:05:01;;;;;;;3.67;1.83;;;12.40;70.30;;;;;;10363919;28;20069;-59
2023/02/20 15:10:06;;;;;;;4.13;1.98;;;12.50;70.40;;;;;;10363224;28;20081;-59
2023/02/20 15:15:14;;;;;;;4.38;1.90;;;12.40;70.40;;;;;;10362882;28;20010;-59
2023/02/20 15:20:40;;;;;;;4.28;1.75;;;12.40;70.30;;;;;;10363228;28;20034;-59
2023/02/20 15:25:42;;;;;;;3.30;1.80;;;12.40;70.40;;;;;;10363909;28;20022;-58
2023/02/20 15:31:07;;;;;;;3.00;1.50;;;12.50;70.50;;;;;;10362811;28;20018;-59
2023/02/20 15:36:13;;;;;;;3.40;1.70;;;12.40;70.30;;;;;;10363052;28;20076;-59
2023/02/20 15:41:17;;;;;;;3.22;1.65;;;12.40;70.40;;;;;;10361977;28;20026;-59
2023/02/20 15:46:18;;;;;;;3.28;2.20;;;12.40;70.30;;;;;;10362831;28;20017;-59
2023/02/20 15:51:21;;;;;;;4.93;1.85;;;12.40;70.40;;;;;;10361503;28;20052;-59
2023/02/20 15:56:25;;;;;;;3.03;1.42;;;12.40;70.40;;;;;;10361443;28;20437;-59
2023/02/20 16:01:25;;;;;;;4.03;1.80;;;12.40;70.40;;;;;;10360908;28;20026;-59
2023/02/20 16:06:26;;;;;;;3.38;1.65;;;12.40;70.40;;;;;;10361578;28;20014;-59
2023/02/20 16:11:36;;;;;;;2.97;1.55;;;12.40;70.40;;;;;;10361183;28;20026;-59
2023/02/20 16:16:44;;;;;;;4.25;2.00;;;12.40;70.40;;;;;;10360842;28;20037;-59
2023/02/20 16:21:46;;;;;;;3.55;2.00;;;12.40;70.30;;;;;;10360742;28;20022;-59
2023/02/20 16:26:48;;;;;;;3.80;1.90;;;12.40;70.40;;;;;;10360659;28;20022;-59
2023/02/20 16:31:52;;;;;;;2.67;1.52;;;12.40;70.30;;;;;;10360590;28;20018;-58
2023/02/20 16:36:53;;;;;;;3.75;1.55;;;12.40;70.40;;;;;;10360120;28;20137;-59
2023/02/20 16:41:57;;;;;;;3.60;2.08;;;12.40;70.40;;;;;;10360714;28;20069;-59
2023/02/20 16:46:57;;;;;;;2.92;1.52;;;12.40;70.40;;;;;;10360849;28;20172;-59
2023/02/20 16:52:00;;;;;;;3.55;1.95;;;12.40;70.50;;;;;;10362760;28;20022;-59
2023/02/20 16:57:00;;;;;;;2.42;1.30;;;12.40;70.40;;;;;;10361824;28;20060;-59
2023/02/20 17:02:01;;;;;;;2.58;1.55;;;12.40;70.50;;;;;;10368036;28;20014;-59
2023/02/20 17:07:02;;;;;;;2.72;1.50;;;12.40;70.50;;;;;;10368387;28;20112;-59
2023/02/20 17:12:03;;;;;;;3.60;1.67;;;12.40;70.50;;;;;;10367747;28;20080;-59
2023/02/20 17:17:05;;;;;;;3.40;1.67;;;12.40;70.50;;;;;;10367656;28;20040;-59
2023/02/20 17:22:07;;;;;;;4.60;2.20;;;12.40;70.50;;;;;;10367889;28;20041;-59
2023/02/20 17:27:09;;;;;;;2.47;1.60;;;12.30;70.40;;;;;;10368833;28;20066;-59
2023/02/20 17:32:11;;;;;;;4.40;1.98;;;12.40;70.50;;;;;;10365699;28;20014;-59
2023/02/20 17:37:12;;;;;;;3.20;1.98;;;12.40;70.50;;;;;;10366977;28;20042;-58
2023/02/20 17:42:13;;;;;;;3.35;1.83;;;12.30;70.50;;;;;;10364869;28;20470;-58
2023/02/20 17:47:14;;;;;;;4.20;2.97;;;12.40;70.50;;;;;;10365017;28;20018;-59
2023/02/20 17:52:15;;;;;;;6.00;2.30;;;12.30;70.50;;;;;;10365438;28;20025;-59
2023/02/20 17:57:18;;;;;;;3.40;2.20;;;12.30;70.50;;;;;;10364556;28;20370;-59
2023/02/20 18:02:19;;;;;;;2.30;1.77;;;12.40;70.50;;;;;;10364197;28;20478;-59
2023/02/20 18:07:20;;;;;;;4.25;2.00;;;12.30;70.50;;;;;;10364597;28;20030;-59
2023/02/20 18:12:21;;;;;;;3.78;2.45;;;12.40;70.50;;;;;;10363278;28;20038;-59
2023/02/20 18:17:22;;;;;;;5.00;2.65;;;12.30;70.50;;;;;;10364971;28;20065;-59
2023/02/20 18:22:23;;;;;;;5.03;2.70;;;12.30;70.40;;;;;;10363588;28;20018;-59
2023/02/20 18:27:24;;;;;;;3.88;2.47;;;12.30;70.50;;;;;;10364565;28;20445;-59
2023/02/20 18:32:24;;;;;;;5.03;2.50;;;12.30;70.50;;;;;;10363165;28;20414;-58
2023/02/20 18:37:25;;;;;;;5.57;2.70;;;12.30;70.50;;;;;;10362647;28;20073;-59
2023/02/20 18:42:26;;;;;;;5.20;3.25;;;12.30;70.50;;;;;;10362568;28;20037;-59
2023/02/20 18:47:26;;;;;;;5.00;3.05;;;12.30;70.50;;;;;;10363953;28;20093;-59
2023/02/20 18:52:27;;;;;;;5.47;3.72;;;12.30;70.50;;;;;;10346121;28;20124;-59
2023/02/20 18:57:27;;;;;;;5.20;3.35;;;12.30;70.50;;;;;;10362491;28;20091;-59
2023/02/20 19:02:28;;;;;;;5.93;3.03;;;12.30;70.50;;;;;;10362162;28;20049;-59
2023/02/20 19:07:29;;;;;;;5.00;3.15;;;12.30;70.50;;;;;;10361853;28;20021;-59
2023/02/20 19:12:30;;;;;;;4.70;3.03;;;12.30;70.60;;;;;;10361549;28;20029;-58
2023/02/20 19:17:31;;;;;;;4.65;2.75;;;12.30;70.60;;;;;;10363423;28;20108;-59
2023/02/20 19:22:32;;;;;;;5.40;3.20;;;12.30;70.60;;;;;;10361531;28;20399;-59
2023/02/20 19:27:33;;;;;;;5.43;3.38;;;12.30;70.60;;;;;;10361409;28;20032;-60
2023/02/20 19:32:33;;;;;;;6.50;3.10;;;12.30;70.50;;;;;;10360777;28;20018;-59
2023/02/20 19:37:35;;;;;;;6.35;4.47;;;12.30;70.60;;;;;;10360405;28;20081;-59
2023/02/20 19:42:37;;;;;;;5.07;3.55;;;12.30;70.60;;;;;;10360731;28;20029;-59
2023/02/20 19:47:37;;;;;;;5.05;3.28;;;12.30;70.60;;;;;;10360584;28;20381;-58
2023/02/20 19:52:41;;;;;;;5.93;3.13;;;12.30;70.60;;;;;;10344067;28;20026;-59
2023/02/20 19:57:41;;;;;;;6.03;3.85;;;12.30;70.60;;;;;;10360031;28;20038;-58
2023/02/20 20:02:47;;;;;;;10.82;3.72;;;12.30;70.60;;;;;;10361403;28;20018;-59
2023/02/20 20:07:49;;;;;;;5.63;3.50;;;12.30;70.60;;;;;;10359877;28;20022;-59
2023/02/20 20:12:50;;;;;;;5.93;3.58;;;12.30;70.60;;;;;;10361056;28;20018;-59
2023/02/20 20:17:58;;;;;;;5.10;3.13;;;12.20;70.60;;;;;;10361178;28;20440;-59
2023/02/20 20:23:01;;;;;;;6.25;3.55;;;12.30;70.70;;;;;;10359739;28;20022;-59
2023/02/20 20:28:06;;;;;;;6.53;4.00;;;12.30;70.70;;;;;;10359505;28;20038;-59
2023/02/20 20:33:08;;;;;;;5.68;3.47;;;12.30;70.70;;;;;;10363102;28;20026;-59
2023/02/20 20:38:08;;;;;;;5.13;3.60;;;12.20;70.60;;;;;;10367476;28;20034;-59
2023/02/20 20:43:11;;;;;;;6.03;3.70;;;12.30;70.60;;;;;;10367826;28;20112;-59
2023/02/20 20:48:13;;;;;;;7.13;4.28;;;12.30;70.70;;;;;;10351531;28;20525;-59
2023/02/20 20:53:15;;;;;;;5.45;3.58;;;12.30;70.60;;;;;;10368570;28;20021;-59
2023/02/20 20:58:15;;;;;;;5.50;4.05;;;12.20;70.60;;;;;;10366995;28;20105;-59
2023/02/20 21:03:16;;;;;;;5.45;4.25;;;12.20;70.60;;;;;;10367982;28;20028;-59
2023/02/20 21:08:17;;;;;;;8.35;4.25;;;12.20;70.60;;;;;;10366585;28;20026;-59
2023/02/20 21:13:17;;;;;;;6.18;3.97;;;12.20;70.60;;;;;;10368038;28;20064;-59
2023/02/20 21:18:18;;;;;;;6.30;4.35;;;12.20;70.70;;;;;;10367452;28;20485;-59
2023/02/20 21:23:19;;;;;;;6.05;3.88;;;12.20;70.60;;;;;;10365949;28;20112;-59
2023/02/20 21:28:19;;;;;;;7.47;4.65;;;12.30;70.70;;;;;;10366084;28;20044;-59
2023/02/20 21:33:20;;;;;;;5.95;4.10;;;12.20;70.60;;;;;;10348977;28;20018;-59
2023/02/20 21:38:21;;;;;;;7.47;4.40;;;12.30;70.70;;;;;;10365435;28;20052;-59
2023/02/20 21:48:40;;;;;;;7.07;4.22;;;12.20;70.70;;;;;;10365867;28;20402;-59
2023/02/20 21:53:41;;;;;;;6.80;4.47;;;12.20;70.60;;;;;;10381300;28;20050;-59
